M I D A S
Marine Information and Data Acquisition System
Tripno 1151 of the Zeeleeuw from 2006-08-23 06:29:35 to 2006-08-23 13:17:47
Back to CruiseResearch ActivitiesStationsMapUnderway DataData graphs

EquipmentUnitsComment
TimeDGPSUTC
LatitudeDGPSDM.mWGS84
LongitudeDGPSDM.mWGS84
TemperatureSBE03/SBE38deg celciusITS90
ConductivitySBE21S/mITS90
SalinitySBE21 Practical Salinity Units
ChlorophylAChelsea fluorimeterg/lCalibrated in Aceton
Missing or incorrect values are displayed as -999
Sea surface data collected by the RV Zeeleeuw from 2006-08-23 06:31:14 to 2006-08-23 13:29:55
Time Latitude Longitude Temperature Conductivity Salinity ChlorophylA
2006-08-23 06:32:20 51°13.61 2°56.063 21.6623 0.007472 0.04189 -0.241899
2006-08-23 06:33:20 51°13.631 2°55.976 20.6183 0.007472 0.041926 -0.241899
2006-08-23 06:34:20 51°13.674 2°55.868 19.5868 3.748479 26.371366 0.567127
2006-08-23 06:35:20 51°13.7 2°55.773 19.171 3.893052 27.983073 0.634546
2006-08-23 06:36:20 51°13.709 2°55.753 19.1227 3.906123 28.328788 0.769383
2006-08-23 06:37:20 51°13.705 2°55.743 18.9928 3.830256 27.789578 0.769383
2006-08-23 06:38:20 51°13.719 2°55.733 18.9592 3.848591 27.976182 0.769383
2006-08-23 06:39:19 51°13.779 2°55.674 18.8611 3.863238 28.118137 0.769383
2006-08-23 06:40:20 51°13.873 2°55.602 18.8131 3.885367 28.359998 0.701965
2006-08-23 06:41:20 51°13.975 2°55.53 18.7727 3.9193 28.672511 0.701965
2006-08-23 06:42:19 51°14.084 2°55.452 18.7755 4.039019 29.673333 0.701965
2006-08-23 06:43:19 51°14.205 2°55.351 18.7534 4.01499 29.479396 0.803093
2006-08-23 06:44:20 51°14.312 2°55.172 18.7224 3.977367 29.191752 0.836802
2006-08-23 06:45:20 51°14.432 2°54.988 18.6888 3.943644 28.929505 0.803093
2006-08-23 06:46:20 51°14.58 2°54.796 18.6329 4.106264 30.302131 0.836802
2006-08-23 06:47:20 51°14.737 2°54.606 18.5608 4.310657 32.026269 0.870512
2006-08-23 06:48:19 51°14.893 2°54.423 18.5613 4.399953 32.815861 0.769383
2006-08-23 06:49:19 51°15.049 2°54.242 18.5783 4.451404 33.241275 0.634546
2006-08-23 06:50:19 51°15.206 2°54.059 18.5834 4.473545 33.415276 0.668255
2006-08-23 06:51:20 51°15.37 2°53.877 18.5875 4.479344 33.459676 0.701965
2006-08-23 06:52:20 51°15.533 2°53.7 18.57 4.478184 33.452309 0.701965
2006-08-23 06:53:20 51°15.7 2°53.531 18.5337 4.470593 33.409787 0.600836
2006-08-23 06:54:19 51°15.863 2°53.361 18.5463 4.470699 33.430462 0.533418
2006-08-23 06:55:19 51°16.036 2°53.208 18.5604 4.475759 33.458238 0.600836
2006-08-23 06:56:19 51°16.205 2°53.044 18.5623 4.477973 33.469183 0.567127
2006-08-23 06:57:20 51°16.373 2°52.865 18.5553 4.481664 33.500052 0.533418
2006-08-23 06:58:18 51°16.539 2°52.721 18.5452 4.488201 33.559419 0.499708
2006-08-23 06:59:19 51°16.711 2°52.569 18.5633 4.509394 33.732734 0.465999
2006-08-23 07:00:20 51°16.875 2°52.408 18.5817 4.522046 33.825168 0.39858
2006-08-23 07:01:20 51°17.037 2°52.257 18.6004 4.529216 33.870483 0.39858
2006-08-23 07:02:19 51°17.138 2°52.163 18.6082 4.535753 33.911658 0.39858
2006-08-23 07:03:20 51°17.219 2°52.106 18.6142 4.538178 33.927242 0.39858
2006-08-23 07:04:20 51°17.289 2°52.121 18.6172 4.544715 33.974888 0.432289
2006-08-23 07:05:19 51°17.319 2°52.128 18.6192 4.545875 33.984008 0.39858
2006-08-23 07:06:18 51°17.319 2°52.134 18.6206 4.547668 33.996651 0.39858
2006-08-23 07:07:20 51°17.322 2°52.168 18.6204 4.548195 34.001656 0.39858
2006-08-23 07:08:20 51°17.358 2°52.256 18.6174 4.547879 33.999599 0.39858
2006-08-23 07:09:18 51°17.393 2°52.34 18.6148 4.546824 33.992544 0.432289
2006-08-23 07:10:20 51°17.404 2°52.391 18.6087 4.508022 33.670834 0.39858
2006-08-23 07:11:20 51°17.396 2°52.396 18.605 4.544294 33.977264 0.364871
2006-08-23 07:12:20 51°17.401 2°52.455 18.6046 4.54345 33.971973 0.39858
2006-08-23 07:13:19 51°17.452 2°52.576 18.597 4.541974 33.961975 0.39858
2006-08-23 07:14:20 51°17.531 2°52.662 18.5971 4.539655 33.947865 0.465999
2006-08-23 07:15:20 51°17.582 2°52.724 18.5983 4.539971 33.948743 0.39858
2006-08-23 07:16:20 51°17.606 2°52.764 18.5989 4.540076 33.947854 0.432289
2006-08-23 07:17:20 51°17.606 2°52.767 18.5993 4.539865 33.94786 0.39858
2006-08-23 07:18:20 51°17.632 2°52.809 18.6002 4.53976 33.945796 0.39858
2006-08-23 07:19:20 51°17.697 2°52.986 18.6007 4.538811 33.935489 0.432289
2006-08-23 07:20:19 51°17.789 2°53.175 18.5888 4.53628 33.918432 0.465999
2006-08-23 07:21:20 51°17.883 2°53.36 18.5818 4.532168 33.891077 0.465999
2006-08-23 07:22:20 51°17.931 2°53.466 18.5754 4.529111 33.870778 0.499708
2006-08-23 07:23:20 51°17.97 2°53.512 18.5743 4.528689 33.872551 0.567127
2006-08-23 07:24:20 51°18 2°53.551 18.5766 4.529216 33.875788 0.533418
2006-08-23 07:25:19 51°18.008 2°53.585 18.5762 4.530165 33.883145 0.567127
2006-08-23 07:26:20 51°17.999 2°53.592 18.5786 4.530692 33.885202 0.533418
2006-08-23 07:27:19 51°17.981 2°53.618 18.5774 4.530798 33.886675 0.499708
2006-08-23 07:28:20 51°17.898 2°53.695 18.5766 4.531325 33.88991 0.567127
2006-08-23 07:29:18 51°17.732 2°53.609 18.5668 4.530481 33.882257 0.634546
2006-08-23 07:30:20 51°17.545 2°53.42 18.5553 4.525526 33.85431 0.600836
2006-08-23 07:31:20 51°17.376 2°53.208 18.5509 4.520465 33.817809 0.567127
2006-08-23 07:32:20 51°17.204 2°53.004 18.5533 4.519305 33.81045 0.533418
2006-08-23 07:33:20 51°17.031 2°52.801 18.5543 4.51941 33.810155 0.499708
2006-08-23 07:34:20 51°16.862 2°52.591 18.5638 4.520149 33.813394 0.533418
2006-08-23 07:35:20 51°16.694 2°52.38 18.5757 4.522152 33.821929 0.499708
2006-08-23 07:36:19 51°16.528 2°52.174 18.5843 4.524998 33.836936 0.465999
2006-08-23 07:37:20 51°16.358 2°51.959 18.5876 4.528478 33.861357 0.465999
2006-08-23 07:38:20 51°16.192 2°51.747 18.5899 4.528372 33.856351 0.465999
2006-08-23 07:39:20 51°16.032 2°51.522 18.5867 4.532168 33.88813 0.432289
2006-08-23 07:40:20 51°15.867 2°51.305 18.5923 4.532695 33.892544 0.432289
2006-08-23 07:41:20 51°15.738 2°51.134 18.5706 4.529005 33.864592 0.465999
2006-08-23 07:42:20 51°15.657 2°51.019 18.567 4.518356 33.787793 0.432289
2006-08-23 07:43:20 51°15.619 2°50.93 18.5636 4.514138 33.756599 0.432289
2006-08-23 07:44:20 51°15.607 2°50.896 18.5679 4.512979 33.748651 0.432289
2006-08-23 07:45:20 51°15.595 2°50.885 18.5707 4.516774 33.775728 0.465999
2006-08-23 07:46:19 51°15.622 2°50.838 18.5698 4.51572 33.768664 0.432289
2006-08-23 07:47:20 51°15.703 2°50.909 18.5736 4.516563 33.772199 0.465999
2006-08-23 07:48:20 51°15.759 2°51.095 18.5765 4.521097 33.806627 0.432289
2006-08-23 07:49:20 51°15.805 2°51.255 18.572 4.525104 33.837819 0.432289
2006-08-23 07:50:20 51°15.804 2°51.313 18.5579 4.519832 33.80074 0.465999
2006-08-23 07:51:20 51°15.797 2°51.321 18.5582 4.515931 33.775721 0.432289
2006-08-23 07:52:20 51°15.81 2°51.408 18.558 4.514666 33.766302 0.432289
2006-08-23 07:53:20 51°15.898 2°51.577 18.5686 4.513717 33.758356 0.465999
2006-08-23 07:54:20 51°15.997 2°51.768 18.5769 4.521624 33.81163 0.499708
2006-08-23 07:55:20 51°16.071 2°51.872 18.5721 4.52426 33.830756 0.465999
2006-08-23 07:56:19 51°16.11 2°51.927 18.5714 4.52426 33.835466 0.465999
2006-08-23 07:57:20 51°16.126 2°51.964 18.5673 4.52405 33.834289 0.432289
2006-08-23 07:58:20 51°16.125 2°51.971 18.5685 4.523417 33.831936 0.432289
2006-08-23 07:59:19 51°16.146 2°52.016 18.5669 4.523101 33.828698 0.432289
2006-08-23 08:00:20 51°16.214 2°52.143 18.5629 4.521625 33.817515 0.432289
2006-08-23 08:01:20 51°16.272 2°52.255 18.556 4.520043 33.807802 0.465999
2006-08-23 08:02:20 51°16.287 2°52.299 18.5534 4.51804 33.794556 0.499708
2006-08-23 08:03:19 51°16.279 2°52.31 18.5506 4.51688 33.786608 0.465999
2006-08-23 08:04:20 51°16.282 2°52.359 18.5461 4.515298 33.776304 0.432289
2006-08-23 08:05:20 51°16.336 2°52.416 18.5459 4.513822 33.766881 0.465999
2006-08-23 08:06:20 51°16.387 2°52.423 18.5498 4.513084 33.759524 0.499708
2006-08-23 08:07:20 51°16.407 2°52.437 18.5529 4.514771 33.771889 0.499708
2006-08-23 08:08:20 51°16.401 2°52.437 18.5538 4.515193 33.771892 0.499708
2006-08-23 08:09:20 51°16.394 2°52.437 18.5511 4.515931 33.778073 0.499708
2006-08-23 08:10:20 51°16.385 2°52.437 18.5522 4.515404 33.774246 0.499708
2006-08-23 08:11:20 51°16.376 2°52.436 18.5534 4.515298 33.772775 0.465999
2006-08-23 08:12:19 51°16.367 2°52.433 18.5522 4.515193 33.771892 0.499708
2006-08-23 08:13:20 51°16.358 2°52.428 18.5533 4.515193 33.771892 0.533418
2006-08-23 08:14:20 51°16.349 2°52.424 18.555 4.514982 33.770714 0.465999
2006-08-23 08:15:20 51°16.341 2°52.421 18.556 4.514771 33.768361 0.465999
2006-08-23 08:16:20 51°16.333 2°52.417 18.5566 4.515193 33.770129 0.465999
2006-08-23 08:17:20 51°16.325 2°52.414 18.5551 4.515087 33.76807 0.465999
2006-08-23 08:18:20 51°16.316 2°52.411 18.5549 4.51456 33.764831 0.465999
2006-08-23 08:19:19 51°16.308 2°52.408 18.5553 4.514349 33.763066 0.533418
2006-08-23 08:20:20 51°16.299 2°52.405 18.5569 4.514244 33.762183 0.465999
2006-08-23 08:21:20 51°16.292 2°52.402 18.5578 4.51456 33.763068 0.465999
2006-08-23 08:22:20 51°16.281 2°52.405 18.5568 4.514771 33.762483 0.465999
2006-08-23 08:23:20 51°16.263 2°52.42 18.5511 4.513611 33.757473 0.499708
2006-08-23 08:24:20 51°16.247 2°52.446 18.5404 4.512557 33.752171 0.499708
2006-08-23 08:25:20 51°16.243 2°52.474 18.5438 4.510448 33.742739 0.465999
2006-08-23 08:26:18 51°16.252 2°52.492 18.5425 4.509394 33.732146 0.499708
2006-08-23 08:27:20 51°16.269 2°52.493 18.545 4.509183 33.73038 0.533418
2006-08-23 08:28:20 51°16.292 2°52.488 18.5506 4.509921 33.733036 0.499708
2006-08-23 08:29:19 51°16.324 2°52.493 18.5503 4.511081 33.738636 0.499708
2006-08-23 08:30:19 51°16.363 2°52.524 18.5555 4.512241 33.748347 0.499708
2006-08-23 08:31:20 51°16.403 2°52.559 18.5551 4.514033 33.759242 0.533418
2006-08-23 08:32:20 51°16.417 2°52.567 18.5557 4.514349 33.76189 0.567127
2006-08-23 08:33:20 51°16.422 2°52.564 18.5606 4.51456 33.76248 0.567127
2006-08-23 08:34:20 51°16.435 2°52.558 18.5592 4.515509 33.768662 0.533418
2006-08-23 08:35:19 51°16.462 2°52.595 18.5552 4.513927 33.756596 0.567127
2006-08-23 08:36:20 51°16.458 2°52.603 18.555 4.514244 33.76042 0.567127
2006-08-23 08:37:20 51°16.45 2°52.605 18.5536 4.514455 33.762185 0.567127
2006-08-23 08:38:20 51°16.438 2°52.618 18.5542 4.514771 33.764834 0.567127
2006-08-23 08:39:20 51°16.437 2°52.656 18.551 4.515931 33.779249 0.600836
2006-08-23 08:40:19 51°16.463 2°52.671 18.5613 4.51688 33.783667 0.600836
2006-08-23 08:41:20 51°16.493 2°52.69 18.5554 4.516669 33.776021 0.567127
2006-08-23 08:42:20 51°16.508 2°52.707 18.5631 4.51941 33.801916 0.600836
2006-08-23 08:43:20 51°16.513 2°52.709 18.5631 4.520676 33.808392 0.567127
2006-08-23 08:44:20 51°16.525 2°52.71 18.5686 4.521625 33.816337 0.600836
2006-08-23 08:45:20 51°16.523 2°52.708 18.5681 4.523522 33.825754 0.634546
2006-08-23 08:46:19 51°16.51 2°52.694 18.563 4.523101 33.825755 0.701965
2006-08-23 08:47:20 51°16.51 2°52.72 18.5694 4.522574 33.82605 0.668255
2006-08-23 08:48:20 51°16.518 2°52.757 18.5803 4.524471 33.830756 0.600836
2006-08-23 08:49:19 51°16.521 2°52.785 18.5851 4.525736 33.832519 0.634546
2006-08-23 08:50:20 51°16.52 2°52.797 18.5802 4.525842 33.832813 0.600836
2006-08-23 08:51:20 51°16.52 2°52.804 18.5905 4.525315 33.830166 0.668255
2006-08-23 08:52:20 51°16.506 2°52.798 18.5918 4.526369 33.830753 0.634546
2006-08-23 08:53:20 51°16.508 2°52.796 18.6113 4.526158 33.827812 0.668255
2006-08-23 08:54:20 51°16.53 2°52.769 18.6178 4.524365 33.799296 0.668255
2006-08-23 08:55:20 51°16.555 2°52.758 18.6136 4.521729 33.77314 0.634546
2006-08-23 08:56:20 51°16.571 2°52.761 18.6186 4.520991 33.766381 0.634546
2006-08-23 08:57:20 51°16.577 2°52.76 18.6188 4.519304 33.754034 0.668255
2006-08-23 08:58:20 51°16.591 2°52.764 18.6224 4.51825 33.7417 0.668255
2006-08-23 08:59:20 51°16.613 2°52.848 18.6169 4.517828 33.73876 0.701965
2006-08-23 09:00:20 51°16.646 2°52.985 18.624 4.509182 33.661807 0.668255
2006-08-23 09:01:20 51°16.668 2°53.06 18.6426 4.497794 33.565501 0.668255
2006-08-23 09:02:20 51°16.672 2°53.069 18.6349 4.489781 33.481132 0.668255
2006-08-23 09:03:20 51°16.67 2°53.067 18.6451 4.487356 33.473096 0.701965
2006-08-23 09:04:20 51°16.685 2°53.083 18.6436 4.485985 33.451779 0.701965
2006-08-23 09:05:20 51°16.746 2°53.186 18.6329 4.484825 33.449649 0.701965
2006-08-23 09:06:20 51°16.82 2°53.319 18.6361 4.478077 33.396232 0.769383
2006-08-23 09:07:20 51°16.87 2°53.403 18.6751 4.471013 33.326292 0.803093
2006-08-23 09:08:20 51°16.866 2°53.405 18.6691 4.463105 33.235546 0.803093
2006-08-23 09:09:20 51°16.859 2°53.402 18.6971 4.462683 33.237796 0.836802
2006-08-23 09:10:20 51°16.851 2°53.399 18.7433 4.460574 33.181095 0.769383
2006-08-23 09:11:20 51°16.874 2°53.397 18.7027 4.462261 33.176747 0.735674
2006-08-23 09:12:20 51°16.922 2°53.478 18.6833 4.458887 33.18545 0.836802
2006-08-23 09:13:20 51°17.004 2°53.617 18.6752 4.453088 33.140618 0.836802
2006-08-23 09:14:20 51°17.053 2°53.732 18.7009 4.444338 33.074655 0.904221
2006-08-23 09:15:20 51°17.085 2°53.83 18.6831 4.430631 32.943457 0.870512
2006-08-23 09:16:19 51°17.102 2°53.93 18.698 4.427257 32.925672 0.836802
2006-08-23 09:17:20 51°17.131 2°54.032 18.7183 4.41819 32.83036 0.836802
2006-08-23 09:18:20 51°17.181 2°54.132 18.7132 4.41218 32.78327 0.97164
2006-08-23 09:19:20 51°17.223 2°54.173 18.7405 4.39626 32.632401 0.904221
2006-08-23 09:20:20 51°17.244 2°54.216 18.7248 4.392781 32.608046 1.005349
2006-08-23 09:21:20 51°17.247 2°54.235 18.7247 4.38519 32.537182 0.97164
2006-08-23 09:22:20 51°17.245 2°54.252 18.7338 4.387193 32.569575 1.039059
2006-08-23 09:23:20 51°17.278 2°54.278 18.7686 4.375385 32.451387 0.97164
2006-08-23 09:24:20 51°17.321 2°54.287 18.7567 4.368321 32.36038 0.93793
2006-08-23 09:25:20 51°17.356 2°54.305 18.7887 4.369797 32.388827 1.005349
2006-08-23 09:26:20 51°17.363 2°54.318 18.7426 4.367267 32.365072 1.005349
2006-08-23 09:27:20 51°17.362 2°54.336 18.7433 4.3679 32.389347 1.005349
2006-08-23 09:28:20 51°17.338 2°54.439 18.7752 4.361679 32.323829 1.005349
2006-08-23 09:29:20 51°17.285 2°54.647 18.7879 4.354827 32.255377 1.106477
2006-08-23 09:30:20 51°17.168 2°54.851 18.8106 4.353877 32.234714 1.173896
2006-08-23 09:31:20 51°17.035 2°54.945 18.8021 4.344811 32.14529 1.173896
2006-08-23 09:32:20 51°16.946 2°54.992 18.8402 4.344494 32.138793 1.241315
2006-08-23 09:33:20 51°16.887 2°54.993 18.8421 4.341858 32.094857 1.241315
2006-08-23 09:34:20 51°16.866 2°54.988 18.7875 4.345232 32.126042 1.241315
2006-08-23 09:35:20 51°16.86 2°54.983 18.7537 4.346498 32.173673 1.275024
2006-08-23 09:36:20 51°16.817 2°54.97 18.8098 4.346076 32.192426 1.241315
2006-08-23 09:37:20 51°16.773 2°54.905 18.7928 4.34576 32.156463 1.308734
2006-08-23 09:38:20 51°16.745 2°54.835 18.7906 4.347763 32.185804 1.241315
2006-08-23 09:39:20 51°16.725 2°54.774 18.8047 4.348922 32.193172 1.241315
2006-08-23 09:40:20 51°16.716 2°54.78 18.7859 4.355459 32.242785 1.241315
2006-08-23 09:41:20 51°16.706 2°54.769 18.7587 4.357146 32.287406 1.207606
2006-08-23 09:42:20 51°16.679 2°54.667 18.8215 4.351769 32.225621 1.241315
2006-08-23 09:43:20 51°16.616 2°54.542 18.8476 4.35588 32.217347 1.241315
2006-08-23 09:44:20 51°16.542 2°54.421 18.8056 4.364841 32.291975 1.207606
2006-08-23 09:45:20 51°16.466 2°54.295 18.7771 4.379285 32.438841 1.140187
2006-08-23 09:46:20 51°16.411 2°54.186 18.7592 4.389196 32.540574 1.106477
2006-08-23 09:47:20 51°16.371 2°54.102 18.7579 4.396998 32.619333 1.039059
2006-08-23 09:48:20 51°16.352 2°54.034 18.779 4.403429 32.659122 1.039059
2006-08-23 09:49:20 51°16.342 2°54.035 18.6934 4.40733 32.70108 1.106477
2006-08-23 09:50:20 51°16.33 2°54.04 18.7604 4.408385 32.747769 1.005349
2006-08-23 09:51:20 51°16.33 2°54.02 18.7163 4.409017 32.722996 1.005349
2006-08-23 09:52:20 51°16.322 2°53.972 18.753 4.407963 32.726701 1.039059
2006-08-23 09:53:20 51°16.291 2°53.92 18.7804 4.409649 32.734473 1.005349
2006-08-23 09:54:20 51°16.251 2°53.859 18.7786 4.415026 32.755307 0.97164
2006-08-23 09:55:20 51°16.233 2°53.806 18.7768 4.416924 32.765953 0.97164
2006-08-23 09:56:21 51°16.228 2°53.802 18.6805 4.420403 32.815801 1.005349
2006-08-23 09:57:20 51°16.232 2°53.788 18.7108 4.423673 32.908977 1.005349
2006-08-23 09:58:20 51°16.235 2°53.783 18.7603 4.418822 32.829363 0.93793
2006-08-23 09:59:20 51°16.236 2°53.783 18.8232 4.422301 32.816798 0.97164
2006-08-23 10:00:20 51°16.236 2°53.785 18.8613 4.429048 32.825137 0.904221
2006-08-23 10:01:20 51°16.235 2°53.79 18.8819 4.433054 32.832849 0.904221
2006-08-23 10:02:20 51°16.232 2°53.797 18.8692 4.434846 32.834675 0.803093
2006-08-23 10:03:20 51°16.228 2°53.807 18.8827 4.433264 32.830067 0.769383
2006-08-23 10:04:20 51°16.224 2°53.817 18.8815 4.434424 32.82892 0.803093
2006-08-23 10:05:20 51°16.219 2°53.829 18.8731 4.433897 32.823424 0.836802
2006-08-23 10:06:20 51°16.214 2°53.839 18.8612 4.43221 32.818507 0.836802
2006-08-23 10:07:20 51°16.208 2°53.851 18.8538 4.427993 32.793198 0.836802
2006-08-23 10:08:20 51°16.202 2°53.863 18.7872 4.424092 32.783506 0.870512
2006-08-23 10:09:20 51°16.197 2°53.877 18.7613 4.419243 32.773865 0.870512
2006-08-23 10:10:20 51°16.191 2°53.89 18.7767 4.42093 32.812231 0.93793
2006-08-23 10:11:20 51°16.186 2°53.902 18.8149 4.416924 32.762556 0.836802
2006-08-23 10:12:20 51°16.181 2°53.915 18.8413 4.417134 32.733197 0.904221
2006-08-23 10:13:20 51°16.176 2°53.929 18.8058 4.413127 32.693796 0.870512
2006-08-23 10:14:20 51°16.172 2°53.942 18.7989 4.406486 32.656255 0.93793
2006-08-23 10:15:20 51°16.168 2°53.955 18.8078 4.404272 32.649751 1.005349
2006-08-23 10:16:20 51°16.164 2°53.968 18.8314 4.405115 32.63532 0.904221
2006-08-23 10:17:20 51°16.16 2°53.982 18.8132 4.404693 32.63239 0.93793
2006-08-23 10:18:20 51°16.155 2°53.995 18.84 4.403955 32.618396 0.904221
2006-08-23 10:19:20 51°16.15 2°54.011 18.8332 4.402373 32.597989 0.97164
2006-08-23 10:20:20 51°16.145 2°54.027 18.8507 4.398262 32.567326 1.039059
2006-08-23 10:21:20 51°16.14 2°54.042 18.8355 4.397418 32.549675 1.072768
2006-08-23 10:22:20 51°16.135 2°54.059 18.8457 4.392885 32.522262 1.072768
2006-08-23 10:23:20 51°16.13 2°54.076 18.8653 4.392147 32.506621 1.039059
2006-08-23 10:24:20 51°16.125 2°54.094 18.8599 4.391725 32.485766 1.039059
2006-08-23 10:25:20 51°16.12 2°54.113 18.8577 4.387508 32.46097 1.072768
2006-08-23 10:26:20 51°16.115 2°54.132 18.8789 4.384977 32.436691 1.039059
2006-08-23 10:27:20 51°16.111 2°54.152 18.8896 4.385293 32.423657 1.072768
2006-08-23 10:28:20 51°16.106 2°54.171 18.8985 4.384766 32.410926 1.072768
2006-08-23 10:29:20 51°16.102 2°54.193 18.8995 4.384344 32.401303 1.039059
2006-08-23 10:30:20 51°16.098 2°54.214 18.9055 4.383606 32.394092 1.072768
2006-08-23 10:31:20 51°16.093 2°54.237 18.9076 4.381919 32.380718 1.106477
2006-08-23 10:32:20 51°16.089 2°54.26 18.9263 4.381181 32.368492 1.072768
2006-08-23 10:33:20 51°16.086 2°54.284 18.9367 4.38213 32.359617 1.039059
2006-08-23 10:34:20 51°16.082 2°54.308 18.9438 4.382762 32.356488 1.039059
2006-08-23 10:35:20 51°16.079 2°54.333 18.9589 4.383816 32.361848 1.039059
2006-08-23 10:36:20 51°16.076 2°54.358 18.9453 4.385714 32.369713 1.039059
2006-08-23 10:37:20 51°16.073 2°54.384 18.9615 4.386136 32.377645 1.039059
2006-08-23 10:38:20 51°16.071 2°54.409 18.9508 4.387506 32.381159 1.039059
2006-08-23 10:39:20 51°16.069 2°54.435 18.9257 4.386558 32.386136 1.039059
2006-08-23 10:40:20 51°16.067 2°54.462 18.9351 4.383395 32.3734 1.072768
2006-08-23 10:41:20 51°16.065 2°54.49 18.9134 4.382552 32.363098 1.072768
2006-08-23 10:42:20 51°16.064 2°54.519 18.9217 4.379178 32.348612 1.106477
2006-08-23 10:43:20 51°16.063 2°54.547 18.9334 4.379073 32.339949 1.039059
2006-08-23 10:44:20 51°16.062 2°54.576 18.9524 4.379283 32.330008 1.072768
2006-08-23 10:45:20 51°16.061 2°54.607 18.9545 4.38097 32.330581 1.072768
2006-08-23 10:46:20 51°16.064 2°54.637 18.9877 4.381181 32.330652 1.106477
2006-08-23 10:47:20 51°16.07 2°54.666 18.9806 4.384132 32.330549 1.106477
2006-08-23 10:48:20 51°16.078 2°54.694 18.9805 4.382235 32.324346 1.207606
2006-08-23 10:49:20 51°16.092 2°54.713 18.9816 4.382656 32.322825 1.140187
2006-08-23 10:50:20 51°16.107 2°54.721 18.9565 4.382973 32.333763 1.207606
2006-08-23 10:51:20 51°16.123 2°54.717 18.9475 4.382235 32.345464 1.241315
2006-08-23 10:52:20 51°16.139 2°54.703 18.9164 4.378756 32.3201 1.241315
2006-08-23 10:53:20 51°16.154 2°54.684 18.978 4.375909 32.301619 1.241315
2006-08-23 10:54:20 51°16.173 2°54.621 19.0078 4.375171 32.261135 1.207606
2006-08-23 10:55:20 51°16.199 2°54.441 18.9703 4.375382 32.255116 1.207606
2006-08-23 10:56:20 51°16.216 2°54.176 18.9804 4.389931 32.395594 1.207606
2006-08-23 10:57:20 51°16.21 2°53.904 18.8981 4.421244 32.659073 1.072768
2006-08-23 10:58:20 51°16.197 2°53.735 18.8966 4.44444 32.893722 0.904221
2006-08-23 10:59:20 51°16.154 2°53.657 18.9613 4.469954 33.076547 0.735674
2006-08-23 11:00:20 51°16.122 2°53.597 18.9452 4.483134 33.176545 0.803093
2006-08-23 11:01:20 51°16.108 2°53.546 18.8798 4.485137 33.197131 0.769383
2006-08-23 11:02:20 51°16.099 2°53.515 18.8393 4.481553 33.225185 0.836802
2006-08-23 11:03:20 51°16.096 2°53.515 18.8028 4.478813 33.237976 0.803093
2006-08-23 11:04:20 51°16.095 2°53.526 18.8454 4.476598 33.219592 0.769383
2006-08-23 11:05:20 51°16.094 2°53.537 18.8641 4.474068 33.183118 0.803093
2006-08-23 11:06:20 51°16.079 2°53.527 18.8727 4.476598 33.194954 0.769383
2006-08-23 11:07:20 51°16.055 2°53.484 18.9149 4.4747 33.177493 0.735674
2006-08-23 11:08:20 51°16.044 2°53.449 18.7997 4.474805 33.157212 0.803093
2006-08-23 11:09:20 51°16.041 2°53.452 18.7446 4.469956 33.187363 0.803093
2006-08-23 11:10:20 51°16.039 2°53.469 18.8255 4.472698 33.254378 0.769383
2006-08-23 11:11:20 51°16.034 2°53.488 18.8593 4.472275 33.173968 0.735674
2006-08-23 11:12:20 51°16.03 2°53.474 18.8548 4.475543 33.179913 0.735674
2006-08-23 11:13:20 51°16.037 2°53.425 18.865 4.478601 33.209285 0.735674
2006-08-23 11:14:20 51°16.029 2°53.358 18.9454 4.481659 33.223769 0.735674
2006-08-23 11:15:20 51°16.024 2°53.331 18.8379 4.535854 33.635498 0.533418
2006-08-23 11:16:19 51°16.021 2°53.34 18.8177 4.547137 33.79788 0.533418
2006-08-23 11:17:19 51°16.012 2°53.351 18.8186 4.546505 33.811878 0.533418
2006-08-23 11:18:19 51°15.981 2°53.325 18.8105 4.546505 33.806038 0.499708
2006-08-23 11:19:20 51°15.949 2°53.274 18.8559 4.545767 33.799309 0.499708
2006-08-23 11:20:20 51°15.946 2°53.248 18.8376 4.549667 33.795024 0.465999
2006-08-23 11:21:20 51°15.942 2°53.233 18.8807 4.547559 33.803141 0.499708
2006-08-23 11:22:20 51°15.935 2°53.22 18.8705 4.552303 33.809953 0.499708
2006-08-23 11:23:20 51°15.929 2°53.211 18.8618 4.551565 33.808479 0.465999
2006-08-23 11:24:20 51°15.93 2°53.218 18.8781 4.550722 33.80846 0.465999
2006-08-23 11:25:19 51°15.932 2°53.227 18.9174 4.553041 33.806765 0.465999
2006-08-23 11:26:20 51°15.918 2°53.187 18.9134 4.556837 33.817343 0.465999
2006-08-23 11:27:19 51°15.894 2°53.136 18.8908 4.557575 33.817069 0.465999
2006-08-23 11:28:20 51°15.892 2°53.106 18.9267 4.556099 33.818782 0.465999
2006-08-23 11:29:20 51°15.908 2°53.106 18.9238 4.558418 33.818254 0.465999
2006-08-23 11:30:20 51°15.922 2°53.105 18.9327 4.55884 33.825835 0.499708
2006-08-23 11:31:20 51°15.899 2°53.085 18.9394 4.561054 33.840738 0.567127
2006-08-23 11:32:20 51°15.86 2°53.033 18.943 4.560632 33.830244 0.499708
2006-08-23 11:33:20 51°15.86 2°53.004 18.9096 4.559894 33.814798 0.432289
2006-08-23 11:34:20 51°15.866 2°53.006 18.8752 4.555466 33.823432 0.499708
2006-08-23 11:35:20 51°15.871 2°53.023 18.914 4.555993 33.826649 0.432289
2006-08-23 11:36:20 51°15.86 2°53.028 18.9437 4.558629 33.834572 0.465999
2006-08-23 11:37:20 51°15.794 2°52.976 18.923 4.556098 33.786184 0.499708
2006-08-23 11:38:20 51°15.744 2°52.862 18.8671 4.547136 33.725701 0.499708
2006-08-23 11:39:20 51°15.714 2°52.793 18.8944 4.538174 33.703517 0.567127
2006-08-23 11:40:20 51°15.694 2°52.762 18.93 4.539228 33.693105 0.499708
2006-08-23 11:41:20 51°15.695 2°52.743 18.9648 4.542391 33.683399 0.465999
2006-08-23 11:42:20 51°15.709 2°52.761 18.8875 4.545343 33.691092 0.499708
2006-08-23 11:43:20 51°15.726 2°52.787 18.942 4.540599 33.693462 0.533418
2006-08-23 11:44:20 51°15.748 2°52.821 18.9502 4.54334 33.684899 0.499708
2006-08-23 11:45:20 51°15.771 2°52.863 18.9028 4.544499 33.68583 0.533418
2006-08-23 11:46:20 51°15.813 2°52.835 18.949 4.540283 33.694898 0.634546
2006-08-23 11:47:20 51°15.887 2°52.753 18.9397 4.544183 33.694801 0.567127
2006-08-23 11:48:20 51°15.993 2°52.885 18.9453 4.54587 33.698367 0.499708
2006-08-23 11:49:20 51°15.953 2°53.073 18.9456 4.550404 33.724397 0.533418
2006-08-23 11:50:20 51°15.85 2°53.201 18.873 4.547769 33.735602 0.533418
2006-08-23 11:51:20 51°15.75 2°53.334 18.9177 4.53965 33.709395 0.567127
2006-08-23 11:52:20 51°15.651 2°53.47 19.01 4.539439 33.665843 0.567127
2006-08-23 11:53:20 51°15.545 2°53.557 18.9735 4.537961 33.555961 0.701965
2006-08-23 11:54:19 51°15.435 2°53.605 18.9783 4.509915 33.3852 0.803093
2006-08-23 11:55:20 51°15.294 2°53.6 18.9183 4.505592 33.351107 0.803093
2006-08-23 11:56:20 51°15.134 2°53.559 18.9577 4.504749 33.362479 0.769383
2006-08-23 11:57:20 51°14.964 2°53.501 18.9673 4.512761 33.370346 0.803093
2006-08-23 11:58:20 51°14.799 2°53.418 18.7661 4.506436 33.408659 0.870512
2006-08-23 11:59:20 51°14.635 2°53.318 18.7126 4.491149 33.373277 1.005349
2006-08-23 12:00:20 51°14.477 2°53.228 18.8153 4.484086 33.369916 1.072768
2006-08-23 12:01:20 51°14.362 2°53.11 18.8565 4.513291 33.519827 1.039059
2006-08-23 12:02:20 51°14.31 2°53.01 18.9142 4.518773 33.548039 0.97164
2006-08-23 12:03:20 51°14.266 2°52.941 19.0811 4.523094 33.464503 0.735674
2006-08-23 12:04:20 51°14.266 2°52.868 18.9056 4.529419 33.44281 0.735674
2006-08-23 12:05:20 51°14.271 2°52.816 18.911 4.528368 33.595338 0.836802
2006-08-23 12:06:20 51°14.282 2°52.816 18.8768 4.529949 33.617164 1.005349
2006-08-23 12:07:20 51°14.276 2°52.815 18.8448 4.530582 33.639238 1.005349
2006-08-23 12:08:20 51°14.238 2°52.787 18.9154 4.530477 33.648809 1.039059
2006-08-23 12:09:20 51°14.206 2°52.717 18.8168 4.533007 33.628658 0.904221
2006-08-23 12:10:20 51°14.179 2°52.689 18.8554 4.529212 33.664431 0.836802
2006-08-23 12:11:20 51°14.176 2°52.725 18.8369 4.53132 33.644213 0.735674
2006-08-23 12:12:20 51°14.149 2°52.8 18.8354 4.52995 33.643265 0.668255
2006-08-23 12:13:20 51°14.176 2°53.026 18.8976 4.529211 33.611032 0.634546
2006-08-23 12:14:20 51°14.334 2°53.122 19.0004 4.528895 33.600296 0.634546
2006-08-23 12:15:20 51°14.52 2°53.032 18.8625 4.534482 33.577292 0.769383
2006-08-23 12:16:20 51°14.713 2°52.929 18.7718 4.532691 33.644002 1.005349
2006-08-23 12:17:20 51°14.91 2°52.837 18.7451 4.506438 33.502768 1.039059
2006-08-23 12:18:20 51°15.102 2°52.737 18.7958 4.500323 33.484882 1.039059
2006-08-23 12:19:20 51°15.272 2°52.65 18.7785 4.506649 33.506839 0.870512
2006-08-23 12:20:20 51°15.402 2°52.582 18.7955 4.512342 33.551327 0.803093
2006-08-23 12:21:19 51°15.474 2°52.498 18.9422 4.518563 33.564817 0.634546
2006-08-23 12:22:20 51°15.523 2°52.433 18.8249 4.530581 33.588841 0.634546
2006-08-23 12:23:20 51°15.554 2°52.408 18.8054 4.530161 33.656052 0.634546
2006-08-23 12:24:21 51°15.573 2°52.445 18.742 4.531743 33.690727 0.600836
2006-08-23 12:25:20 51°15.59 2°52.454 18.7458 4.530163 33.741109 0.600836
2006-08-23 12:26:20 51°15.552 2°52.366 18.7849 4.530478 33.704652 0.600836
2006-08-23 12:27:20 51°15.474 2°52.216 18.7662 4.532903 33.719022 0.600836
2006-08-23 12:28:20 51°15.37 2°52.061 18.7476 4.531322 33.709346 0.634546
2006-08-23 12:29:20 51°15.296 2°51.93 18.7456 4.527737 33.707464 0.634546
2006-08-23 12:30:20 51°15.261 2°51.866 18.7158 4.523836 33.686609 0.668255
2006-08-23 12:31:20 51°15.236 2°51.838 18.7409 4.522255 33.676923 0.701965
2006-08-23 12:32:20 51°15.222 2°51.819 18.7311 4.524363 33.680509 0.634546
2006-08-23 12:33:20 51°15.216 2°51.808 18.7099 4.522571 33.681892 0.701965
2006-08-23 12:34:20 51°15.219 2°51.823 18.7122 4.520989 33.677454 0.701965
2006-08-23 12:35:20 51°15.224 2°51.855 18.6839 4.520462 33.680058 0.701965
2006-08-23 12:36:20 51°15.148 2°51.773 18.7152 4.518881 33.675035 0.769383
2006-08-23 12:37:20 51°15.093 2°51.611 18.7455 4.524574 33.695679 0.701965
2006-08-23 12:38:20 51°15.043 2°51.501 18.7443 4.529846 33.72329 0.735674
2006-08-23 12:39:20 51°15.03 2°51.445 18.7419 4.531955 33.740284 0.668255
2006-08-23 12:40:20 51°15.032 2°51.451 18.7299 4.531639 33.749328 0.668255
2006-08-23 12:41:20 51°15.017 2°51.47 18.743 4.531744 33.747287 0.668255
2006-08-23 12:42:20 51°14.929 2°51.581 18.7645 4.53322 33.750831 0.668255
2006-08-23 12:43:20 51°14.933 2°51.829 18.7745 4.532798 33.733306 0.701965
2006-08-23 12:44:20 51°14.984 2°52.131 18.7881 4.532376 33.720461 0.769383
2006-08-23 12:45:20 51°15.026 2°52.404 18.7836 4.530162 33.692696 0.803093
2006-08-23 12:46:19 51°15.058 2°52.598 18.7679 4.528053 33.672809 0.836802
2006-08-23 12:47:20 51°15.083 2°52.757 18.7567 4.520462 33.635774 0.870512
2006-08-23 12:48:20 51°15.11 2°52.893 18.7599 4.517509 33.61002 0.904221
2006-08-23 12:49:20 51°15.129 2°52.957 18.7705 4.517931 33.603071 0.870512
2006-08-23 12:50:21 51°15.142 2°52.983 18.738 4.515928 33.599173 1.005349
2006-08-23 12:51:20 51°15.13 2°53.076 18.7738 4.512132 33.583247 0.93793
2006-08-23 12:52:19 51°15.038 2°53.078 18.8046 4.517931 33.592036 0.97164
2006-08-23 12:53:20 51°14.964 2°52.893 18.7852 4.522464 33.622802 0.93793
2006-08-23 12:54:20 51°14.916 2°52.666 18.8176 4.529423 33.680729 0.904221
2006-08-23 12:55:20 51°14.852 2°52.457 18.8229 4.537437 33.721231 0.93793
2006-08-23 12:56:20 51°14.821 2°52.333 18.8391 4.540494 33.744346 0.93793
2006-08-23 12:57:20 51°14.784 2°52.29 18.8432 4.542287 33.755183 0.93793
2006-08-23 12:58:20 51°14.779 2°52.254 18.8521 4.545344 33.768388 0.870512
2006-08-23 12:59:19 51°14.794 2°52.253 18.8394 4.54661 33.777748 0.870512
2006-08-23 13:00:20 51°14.796 2°52.179 18.8425 4.545028 33.776247 0.870512
2006-08-23 13:01:20 51°14.739 2°52.084 18.8307 4.543763 33.767467 0.904221
2006-08-23 13:02:20 51°14.691 2°52.041 18.8323 4.544606 33.775069 0.904221
2006-08-23 13:03:20 51°14.666 2°52.021 18.845 4.545555 33.782967 0.870512
2006-08-23 13:04:20 51°14.667 2°52.037 18.8345 4.546821 33.787081 0.904221
2006-08-23 13:05:20 51°14.67 2°52.056 18.8524 4.54661 33.791742 0.904221
2006-08-23 13:06:20 51°14.669 2°52.017 18.8608 4.548297 33.7912 0.803093
2006-08-23 13:07:20 51°14.761 2°51.927 18.8489 4.549773 33.792404 0.803093
2006-08-23 13:08:20 51°14.873 2°52.1 18.8229 4.54545 33.775093 0.803093
2006-08-23 13:09:20 51°14.838 2°52.405 18.8229 4.540389 33.751626 0.870512
2006-08-23 13:10:20 51°14.79 2°52.732 18.8812 4.545766 33.778308 0.870512
2006-08-23 13:11:20 51°14.74 2°53.058 18.8707 4.550194 33.787171 0.836802
2006-08-23 13:12:20 51°14.689 2°53.382 18.8247 4.545133 33.754986 0.836802
2006-08-23 13:13:20 51°14.637 2°53.706 18.7639 4.538597 33.750113 0.803093
2006-08-23 13:14:20 51°14.583 2°54.038 18.7805 4.535329 33.757896 0.769383
2006-08-23 13:15:20 51°14.521 2°54.364 18.7708 4.52605 33.668933 0.769383
2006-08-23 13:16:20 51°14.455 2°54.686 18.7625 4.514346 33.570903 0.836802
2006-08-23 13:17:20 51°14.373 2°54.998 18.7689 4.501588 33.479196 0.93793
2006-08-23 13:18:20 51°14.26 2°55.254 18.9812 4.474173 33.179986 1.241315
2006-08-23 13:19:20 51°14.119 2°55.421 18.8529 4.32657 31.885662 1.106477
2006-08-23 13:20:20 51°14.005 2°55.505 18.877 4.239812 31.247323 1.039059
2006-08-23 13:21:20 51°13.882 2°55.591 18.8714 4.219678 31.076447 1.241315
2006-08-23 13:22:20 51°13.767 2°55.689 19.1783 4.184155 30.78371 1.106477
2006-08-23 13:23:20 51°13.698 2°55.8 19.3222 3.832781 27.629506 1.039059
2006-08-23 13:24:20 51°13.652 2°55.905 19.0674 3.843108 27.772569 1.140187
2006-08-23 13:25:24 51°13.617 2°56.004 19.3169 0.064263 0.353894 0.331161
2006-08-23 13:26:25 51°13.603 2°56.083 19.3893 0.049724 0.271775 0.364871
2006-08-23 13:27:25 51°13.601 2°56.095 19.4588 0.043909 0.239232 0.331161
2006-08-23 13:28:25 51°13.602 2°56.098 19.4988 0.042767 0.232775 0.331161
2006-08-23 13:29:25 51°13.602 2°56.099 19.5573 0.042248 0.229759 0.331161